createdAt,value
2023-01-04T00:01:26.064Z,13.63
2023-01-04T00:03:54.010Z,12.90
2023-01-04T00:06:23.327Z,14.00
2023-01-04T00:08:51.392Z,12.97
2023-01-04T00:11:21.166Z,12.53
2023-01-04T00:13:51.173Z,11.27
2023-01-04T00:16:21.213Z,11.90
2023-01-04T00:18:50.008Z,14.07
2023-01-04T00:21:19.850Z,12.97
2023-01-04T00:23:51.395Z,12.37
2023-01-04T00:26:21.492Z,9.83
2023-01-04T00:28:54.273Z,12.13
2023-01-04T00:31:23.476Z,15.27
2023-01-04T00:33:52.619Z,10.40
2023-01-04T00:36:20.602Z,8.60
2023-01-04T00:39:08.438Z,9.67
2023-01-04T00:44:26.210Z,12.50
2023-01-04T00:46:54.769Z,10.23
2023-01-04T00:49:22.449Z,12.27
2023-01-04T00:51:50.515Z,10.97
2023-01-04T00:54:20.574Z,13.03
2023-01-04T00:56:49.513Z,10.70
2023-01-04T00:59:19.402Z,11.13
2023-01-04T01:01:48.488Z,8.63
2023-01-04T01:04:19.255Z,15.17
2023-01-04T01:06:48.395Z,13.13
2023-01-04T01:09:16.549Z,16.20
2023-01-04T01:11:46.051Z,18.57
2023-01-04T01:14:18.530Z,16.00
2023-01-04T01:16:56.581Z,12.33
2023-01-04T01:19:27.822Z,10.40
2023-01-04T01:21:57.152Z,14.27
2023-01-04T01:24:25.480Z,11.43
2023-01-04T01:26:54.780Z,13.53
2023-01-04T01:29:22.493Z,11.83
2023-01-04T01:31:50.770Z,12.63
2023-01-04T01:34:18.458Z,10.57
2023-01-04T01:36:46.487Z,8.93
2023-01-04T01:39:14.514Z,11.20
2023-01-04T01:41:42.799Z,12.27
2023-01-04T01:44:44.525Z,9.90
2023-01-04T01:47:16.269Z,9.47
2023-01-04T01:49:46.999Z,13.90
2023-01-04T01:52:19.197Z,10.00
2023-01-04T01:54:50.577Z,8.40
2023-01-04T01:57:23.838Z,10.10
2023-01-04T01:59:54.287Z,12.63
2023-01-04T02:02:24.127Z,16.33
2023-01-04T02:04:56.625Z,8.50
2023-01-04T02:07:27.987Z,12.80
2023-01-04T02:09:56.986Z,12.27
2023-01-04T02:12:26.014Z,9.17
2023-01-04T02:14:53.993Z,11.37
2023-01-04T02:17:35.647Z,11.20
2023-01-04T02:20:16.757Z,10.70
2023-01-04T02:23:18.820Z,9.03
2023-01-04T02:26:31.157Z,10.80
2023-01-04T02:29:28.761Z,8.90
2023-01-04T02:32:00.413Z,8.37
2023-01-04T02:34:42.468Z,13.60
2023-01-04T02:37:20.089Z,9.13
2023-01-04T02:39:54.353Z,8.80
2023-01-04T02:42:50.236Z,10.27
2023-01-04T02:45:23.188Z,14.53
2023-01-04T02:48:10.202Z,9.77
2023-01-04T02:50:51.488Z,11.60
2023-01-04T02:53:22.247Z,12.50
2023-01-04T02:55:58.027Z,14.13
2023-01-04T02:58:43.872Z,14.00
2023-01-04T03:01:36.066Z,17.40
2023-01-04T03:04:37.892Z,16.87
2023-01-04T03:07:12.560Z,11.80
2023-01-04T03:09:47.840Z,13.23
2023-01-04T03:12:33.806Z,12.13
2023-01-04T03:15:07.885Z,14.67
2023-01-04T03:17:44.058Z,13.07
2023-01-04T03:20:16.453Z,17.67
2023-01-04T03:23:06.248Z,17.53
2023-01-04T03:25:56.534Z,16.83
2023-01-04T03:28:45.426Z,20.07
2023-01-04T03:31:35.293Z,21.10
2023-01-04T03:34:20.995Z,16.47
2023-01-04T03:36:58.132Z,13.40
2023-01-04T03:39:53.763Z,13.47
2023-01-04T03:42:45.121Z,9.80
2023-01-04T03:45:37.203Z,11.53
2023-01-04T03:48:32.005Z,12.90
2023-01-04T03:51:09.257Z,12.70
2023-01-04T03:53:49.518Z,10.33
2023-01-04T03:56:19.674Z,9.03
2023-01-04T03:58:47.607Z,9.90
2023-01-04T04:01:15.988Z,8.47
2023-01-04T04:04:01.322Z,8.20
2023-01-04T04:06:47.194Z,10.43
2023-01-04T04:09:16.360Z,7.37
2023-01-04T04:11:44.096Z,7.90
2023-01-04T04:14:12.368Z,10.00
2023-01-04T04:16:40.348Z,9.70
2023-01-04T04:19:09.134Z,9.87
2023-01-04T04:21:37.067Z,8.63
2023-01-04T04:24:05.651Z,10.00
2023-01-04T04:26:34.698Z,7.70
2023-01-04T04:29:02.667Z,10.97
2023-01-04T04:31:30.412Z,10.30
2023-01-04T04:33:58.339Z,9.47
2023-01-04T04:36:26.273Z,9.90
2023-01-04T04:38:53.949Z,11.70
2023-01-04T04:41:40.128Z,12.77
2023-01-04T04:44:11.233Z,13.37
2023-01-04T04:46:40.186Z,10.10
2023-01-04T04:49:09.193Z,14.73
2023-01-04T04:51:37.887Z,14.90
2023-01-04T04:54:06.189Z,16.27
2023-01-04T04:56:34.301Z,15.43
2023-01-04T04:59:02.364Z,15.70
2023-01-04T05:01:31.624Z,10.80
2023-01-04T05:04:00.418Z,10.57
2023-01-04T05:06:28.605Z,10.80
2023-01-04T05:08:56.782Z,11.60
2023-01-04T05:11:38.471Z,13.07
2023-01-04T05:14:06.675Z,14.00
2023-01-04T05:16:36.012Z,14.60
2023-01-04T05:19:03.898Z,14.50
2023-01-04T05:21:31.940Z,12.93
2023-01-04T05:23:59.608Z,14.23
2023-01-04T05:26:27.313Z,12.77
2023-01-04T05:28:55.262Z,12.03
2023-01-04T05:31:22.656Z,14.53
2023-01-04T05:33:53.431Z,12.07
2023-01-04T05:36:22.393Z,10.57
2023-01-04T05:38:50.283Z,10.83
2023-01-04T05:41:36.317Z,11.40
2023-01-04T05:44:04.723Z,11.37
2023-01-04T05:46:32.485Z,14.80
2023-01-04T05:49:01.749Z,13.53
2023-01-04T05:51:30.368Z,10.27
2023-01-04T05:53:58.384Z,14.13
2023-01-04T05:56:29.785Z,11.77
2023-01-04T05:58:57.537Z,12.30
2023-01-04T06:01:25.260Z,16.17
2023-01-04T06:03:53.771Z,12.30
2023-01-04T06:06:22.842Z,11.80
2023-01-04T06:08:51.125Z,14.87
2023-01-04T06:11:24.015Z,14.57
2023-01-04T06:13:55.173Z,13.50
2023-01-04T06:16:23.324Z,13.53
2023-01-04T06:18:51.029Z,14.23
2023-01-04T06:21:18.940Z,12.47
2023-01-04T06:23:48.339Z,13.87
2023-01-04T06:26:16.346Z,16.47
2023-01-04T06:28:44.125Z,12.27
2023-01-04T06:31:12.941Z,13.10
2023-01-04T06:33:41.681Z,12.60
2023-01-04T06:36:19.368Z,12.47
2023-01-04T06:38:48.998Z,13.53
2023-01-04T06:41:16.702Z,13.80
2023-01-04T06:43:45.118Z,13.73
2023-01-04T06:46:13.401Z,12.90
2023-01-04T06:48:41.423Z,11.00
2023-01-04T06:51:10.000Z,14.37
2023-01-04T06:53:37.789Z,13.50
2023-01-04T06:56:09.382Z,11.80
2023-01-04T06:58:37.644Z,13.37
2023-01-04T07:01:05.600Z,9.60
2023-01-04T07:03:34.429Z,10.73
2023-01-04T07:06:06.133Z,10.73
2023-01-04T07:08:35.616Z,12.43
2023-01-04T07:11:03.997Z,12.23
2023-01-04T07:13:33.077Z,14.57
2023-01-04T07:16:01.631Z,11.73
2023-01-04T07:18:29.287Z,10.57
2023-01-04T07:20:57.051Z,9.90
2023-01-04T07:23:24.986Z,11.03
2023-01-04T07:25:52.682Z,13.00
2023-01-04T07:28:34.841Z,10.10
2023-01-04T07:31:07.667Z,13.70
2023-01-04T07:33:36.599Z,11.37
2023-01-04T07:36:05.852Z,12.50
2023-01-04T07:38:35.245Z,15.50
2023-01-04T07:41:03.228Z,13.73
2023-01-04T07:43:30.995Z,12.97
2023-01-04T07:45:59.164Z,13.77
2023-01-04T07:48:30.600Z,16.17
2023-01-04T07:50:58.598Z,13.10
2023-01-04T07:53:26.306Z,13.83
2023-01-04T07:55:58.498Z,14.10
2023-01-04T07:58:29.608Z,16.80
2023-01-04T08:00:58.305Z,17.30
2023-01-04T08:03:26.093Z,19.30
2023-01-04T08:05:55.442Z,16.83
2023-01-04T08:08:23.516Z,11.43
2023-01-04T08:10:51.420Z,14.90
2023-01-04T08:13:19.498Z,15.17
2023-01-04T08:15:53.689Z,15.63
2023-01-04T08:18:22.145Z,15.10
2023-01-04T08:20:53.515Z,17.53
2023-01-04T08:23:27.599Z,15.97
2023-01-04T08:25:55.266Z,18.77
2023-01-04T08:28:23.040Z,17.93
2023-01-04T08:30:51.466Z,13.23
2023-01-04T08:33:19.468Z,20.33
2023-01-04T08:35:47.506Z,14.57
2023-01-04T08:38:56.124Z,15.37
2023-01-04T08:41:30.985Z,15.90
2023-01-04T08:43:53.365Z,14.03
2023-01-04T08:46:21.138Z,12.93
2023-01-04T08:48:48.878Z,13.80
2023-01-04T08:51:18.012Z,16.33
2023-01-04T08:53:46.203Z,15.17
2023-01-04T08:56:15.580Z,19.50
2023-01-04T08:58:43.484Z,17.30
2023-01-04T09:01:12.736Z,13.40
2023-01-04T09:03:42.095Z,18.60
2023-01-04T09:06:13.175Z,15.23
2023-01-04T09:08:42.268Z,16.87
2023-01-04T09:11:12.996Z,13.70
2023-01-04T09:13:43.026Z,15.83
2023-01-04T09:16:13.344Z,14.00
2023-01-04T09:18:41.392Z,16.47
2023-01-04T09:21:10.907Z,14.43
2023-01-04T09:23:39.695Z,14.60
2023-01-04T09:26:09.802Z,11.03
2023-01-04T09:28:38.361Z,15.40
2023-01-04T09:31:08.897Z,9.33
2023-01-04T09:34:12.144Z,9.53
2023-01-04T09:36:25.578Z,17.00
2023-01-04T09:38:53.442Z,10.03
2023-01-04T09:41:27.111Z,10.07
2023-01-04T09:43:57.567Z,9.17
2023-01-04T09:46:33.814Z,12.63
2023-01-04T09:49:15.913Z,11.50
2023-01-04T09:51:55.156Z,13.93
2023-01-04T09:57:00.611Z,14.60
2023-01-04T09:59:31.760Z,15.37
2023-01-04T10:02:06.232Z,12.13
2023-01-04T10:04:43.160Z,11.43
2023-01-04T10:07:19.251Z,12.37
2023-01-04T10:09:47.330Z,13.83
2023-01-04T10:12:32.821Z,14.43
2023-01-04T10:15:13.438Z,11.33
2023-01-04T10:21:29.558Z,19.37
2023-01-04T10:24:12.108Z,17.90
2023-01-04T10:26:48.203Z,16.30
2023-01-04T10:29:39.889Z,18.77
2023-01-04T10:32:18.037Z,15.43
2023-01-04T10:34:49.436Z,15.57
2023-01-04T10:37:21.101Z,21.20
2023-01-04T10:39:53.276Z,19.70
2023-01-04T10:42:27.734Z,20.43
2023-01-04T10:45:09.699Z,20.53
2023-01-04T10:47:47.461Z,17.07
2023-01-04T10:50:23.790Z,17.40
2023-01-04T10:52:56.296Z,15.97
2023-01-04T10:55:30.813Z,16.30
2023-01-04T10:58:03.682Z,18.23
2023-01-04T11:00:36.524Z,18.37
2023-01-04T11:03:10.308Z,14.07
2023-01-04T11:05:45.488Z,13.83
2023-01-04T11:08:18.946Z,16.00
2023-01-04T11:10:52.706Z,15.33
2023-01-04T11:13:20.524Z,15.57
2023-01-04T11:15:49.379Z,11.17
2023-01-04T11:18:18.152Z,13.63
2023-01-04T11:20:47.260Z,12.43
2023-01-04T11:23:17.160Z,9.13
2023-01-04T11:25:55.472Z,7.70
2023-01-04T11:28:29.279Z,3.20
2023-01-04T11:31:06.717Z,6.07
2023-01-04T11:33:54.222Z,5.50
2023-01-04T11:36:40.558Z,5.27
2023-01-04T11:39:19.362Z,4.60
2023-01-04T11:42:02.293Z,4.10
2023-01-04T11:44:32.263Z,3.07
2023-01-04T11:47:19.267Z,6.67
2023-01-04T11:49:48.308Z,4.20
2023-01-04T11:52:32.433Z,1.33
2023-01-04T11:55:17.995Z,1.53
2023-01-04T11:57:45.609Z,1.27
2023-01-04T12:00:17.556Z,1.83
2023-01-04T12:03:01.825Z,1.10
2023-01-04T12:05:33.643Z,1.10
2023-01-04T12:08:03.179Z,1.93
2023-01-04T12:10:31.028Z,2.63
2023-01-04T12:13:02.117Z,3.50
2023-01-04T12:15:41.140Z,0.90
2023-01-04T12:18:15.186Z,1.53
2023-01-04T12:20:42.852Z,1.00
2023-01-04T12:23:14.836Z,1.00
2023-01-04T12:25:45.880Z,1.00
2023-01-04T12:28:36.242Z,1.30
2023-01-04T12:31:34.249Z,1.37
2023-01-04T12:34:39.375Z,1.37
2023-01-04T12:37:08.581Z,1.27
2023-01-04T12:39:43.546Z,1.30
2023-01-04T12:42:36.322Z,1.03
2023-01-04T12:45:15.181Z,0.93
2023-01-04T12:48:01.559Z,1.10
2023-01-04T12:50:31.966Z,0.90
2023-01-04T12:53:29.551Z,2.30
2023-01-04T12:55:57.306Z,0.70
2023-01-04T12:59:26.503Z,1.80
2023-01-04T13:02:16.484Z,1.80
2023-01-04T13:04:44.861Z,1.20
2023-01-04T13:07:19.451Z,1.30
2023-01-04T13:09:58.026Z,0.97
2023-01-04T13:12:54.568Z,1.20
2023-01-04T13:15:29.885Z,1.00
2023-01-04T13:17:58.935Z,1.17
2023-01-04T13:20:29.529Z,1.83
2023-01-04T13:22:59.820Z,0.77
2023-01-04T13:25:27.908Z,1.67
2023-01-04T13:28:01.095Z,1.03
2023-01-04T13:30:31.423Z,0.87
2023-01-04T13:33:25.481Z,1.17
2023-01-04T13:36:01.915Z,0.80
2023-01-04T13:38:32.512Z,1.90
2023-01-04T13:41:00.958Z,0.73
2023-01-04T13:43:52.651Z,0.87
2023-01-04T13:46:21.961Z,1.17
2023-01-04T13:48:52.945Z,0.70
2023-01-04T13:51:32.076Z,0.90
2023-01-04T13:54:05.512Z,1.00
2023-01-04T13:56:35.793Z,2.23
2023-01-04T13:59:04.821Z,1.83
2023-01-04T14:01:35.448Z,1.13
2023-01-04T14:04:07.156Z,1.00
2023-01-04T14:06:40.791Z,1.33
2023-01-04T14:09:17.040Z,1.33
2023-01-04T14:12:06.684Z,2.00
2023-01-04T14:14:41.791Z,1.10
2023-01-04T14:17:19.926Z,2.03
2023-01-04T14:19:57.806Z,1.27
2023-01-04T14:22:42.107Z,1.53
2023-01-04T14:25:33.927Z,0.97
2023-01-04T14:28:34.054Z,1.63
2023-01-04T14:31:26.800Z,1.50
2023-01-04T14:33:55.848Z,1.53
2023-01-04T14:36:26.871Z,1.70
2023-01-04T14:39:02.061Z,0.73
2023-01-04T14:41:33.716Z,1.17
2023-01-04T14:44:53.049Z,0.80
2023-01-04T14:47:22.719Z,1.47
2023-01-04T14:49:50.506Z,0.90
2023-01-04T14:52:23.318Z,0.80
2023-01-04T14:54:51.830Z,1.00
2023-01-04T14:57:21.149Z,1.70
2023-01-04T14:59:48.754Z,1.00
2023-01-04T15:02:17.213Z,1.37
2023-01-04T15:04:46.489Z,1.87
2023-01-04T15:07:35.718Z,1.50
2023-01-04T15:10:04.387Z,2.03
2023-01-04T15:12:32.013Z,1.57
2023-01-04T15:14:59.643Z,1.10
2023-01-04T15:17:28.137Z,0.97
2023-01-04T15:19:57.882Z,2.07
2023-01-04T15:22:25.502Z,0.80
2023-01-04T15:24:53.615Z,1.30
2023-01-04T15:27:24.453Z,1.40
2023-01-04T15:29:57.097Z,1.00
2023-01-04T15:32:25.238Z,1.00
2023-01-04T15:34:52.961Z,0.80
2023-01-04T15:37:24.190Z,0.90
2023-01-04T15:39:56.734Z,0.87
2023-01-04T15:42:45.824Z,0.77
2023-01-04T15:45:13.595Z,1.00
2023-01-04T15:47:41.260Z,0.90
2023-01-04T15:50:09.807Z,0.60
2023-01-04T15:52:39.109Z,0.70
2023-01-04T15:55:07.417Z,0.50
2023-01-04T15:57:38.715Z,1.00
2023-01-04T16:00:10.816Z,0.70
2023-01-04T16:02:41.578Z,0.70
2023-01-04T16:05:10.395Z,0.80
2023-01-04T16:07:39.479Z,0.57
2023-01-04T16:10:08.178Z,0.63
2023-01-04T16:12:43.365Z,1.07
2023-01-04T16:15:15.325Z,0.70
2023-01-04T16:17:44.725Z,1.03
2023-01-04T16:20:14.613Z,1.87
2023-01-04T16:22:43.943Z,1.07
2023-01-04T16:25:12.864Z,0.90
2023-01-04T16:27:41.975Z,1.33
2023-01-04T16:30:13.539Z,0.63
2023-01-04T16:32:43.311Z,0.80
2023-01-04T16:35:12.052Z,0.50
2023-01-04T16:37:40.740Z,1.80
2023-01-04T16:40:11.503Z,1.10
2023-01-04T16:42:39.905Z,0.70
2023-01-04T16:45:09.758Z,1.13
2023-01-04T16:47:41.227Z,1.00
2023-01-04T16:50:10.271Z,1.40
2023-01-04T16:52:38.351Z,1.67
2023-01-04T16:55:07.256Z,2.70
2023-01-04T16:57:36.964Z,1.23
2023-01-04T17:00:06.040Z,1.53
2023-01-04T17:02:33.958Z,0.70
2023-01-04T17:05:03.173Z,1.00
2023-01-04T17:07:33.498Z,0.50
2023-01-04T17:10:01.669Z,0.70
2023-01-04T17:12:48.187Z,2.33
2023-01-04T17:18:07.961Z,0.90
2023-01-04T17:20:36.097Z,1.40
2023-01-04T17:23:03.785Z,1.30
2023-01-04T17:25:32.231Z,2.67
2023-01-04T17:28:00.186Z,1.03
2023-01-04T17:30:29.689Z,1.03
2023-01-04T17:32:57.339Z,1.67
2023-01-04T17:35:25.063Z,1.83
2023-01-04T17:37:53.126Z,1.27
2023-01-04T17:40:23.180Z,1.77
2023-01-04T17:42:54.889Z,1.07
2023-01-04T17:45:23.087Z,2.40
2023-01-04T17:47:52.652Z,1.93
2023-01-04T17:50:21.777Z,2.67
2023-01-04T17:52:50.959Z,1.20
2023-01-04T17:55:19.531Z,2.90
2023-01-04T17:57:47.903Z,0.73
2023-01-04T18:00:16.317Z,0.90
2023-01-04T18:02:45.252Z,0.87
2023-01-04T18:05:15.067Z,1.10
2023-01-04T18:07:43.007Z,1.50
2023-01-04T18:10:27.151Z,1.07
2023-01-04T18:13:05.902Z,1.63
2023-01-04T18:15:36.213Z,0.90
2023-01-04T18:18:07.235Z,1.07
2023-01-04T18:20:37.590Z,1.70
2023-01-04T18:23:05.739Z,0.70
2023-01-04T18:25:34.470Z,1.17
2023-01-04T18:28:02.690Z,1.00
2023-01-04T18:30:30.741Z,1.83
2023-01-04T18:32:59.079Z,1.00
2023-01-04T18:35:27.356Z,0.87
2023-01-04T18:37:57.025Z,0.70
2023-01-04T18:40:24.906Z,1.87
2023-01-04T18:42:54.924Z,0.70
2023-01-04T18:45:22.993Z,1.10
2023-01-04T18:47:52.212Z,0.80
2023-01-04T18:50:20.337Z,1.03
2023-01-04T18:52:48.193Z,1.73
2023-01-04T18:55:17.831Z,1.03
2023-01-04T18:57:45.583Z,1.17
2023-01-04T19:00:14.989Z,0.77
2023-01-04T19:02:42.771Z,1.13
2023-01-04T19:05:12.682Z,0.97
2023-01-04T19:07:41.005Z,0.70
2023-01-04T19:10:10.245Z,2.10
2023-01-04T19:12:39.462Z,1.30
2023-01-04T19:15:09.630Z,0.60
2023-01-04T19:17:38.787Z,0.80
2023-01-04T19:20:08.518Z,1.40
2023-01-04T19:22:37.900Z,0.87
2023-01-04T19:25:06.937Z,0.50
2023-01-04T19:27:35.023Z,0.70
2023-01-04T19:30:05.084Z,1.33
2023-01-04T19:32:33.826Z,0.77
2023-01-04T19:35:02.418Z,1.57
2023-01-04T19:37:30.527Z,1.17
2023-01-04T19:39:58.419Z,0.60
2023-01-04T19:42:26.952Z,0.93
2023-01-04T19:44:55.224Z,1.57
2023-01-04T19:47:24.403Z,0.83
2023-01-04T19:49:52.869Z,1.00
2023-01-04T19:52:20.558Z,0.90
2023-01-04T19:54:48.573Z,1.53
2023-01-04T19:57:16.649Z,0.87
2023-01-04T19:59:44.352Z,1.10
2023-01-04T20:02:13.839Z,0.70
2023-01-04T20:04:43.854Z,0.93
2023-01-04T20:07:11.987Z,0.70
2023-01-04T20:09:39.690Z,1.20
2023-01-04T20:12:08.331Z,1.20
2023-01-04T20:14:36.725Z,1.37
2023-01-04T20:17:04.653Z,0.87
2023-01-04T20:19:32.948Z,0.80
2023-01-04T20:22:02.033Z,1.00
2023-01-04T20:24:29.909Z,0.90
2023-01-04T20:27:00.001Z,0.40
2023-01-04T20:29:27.925Z,0.70
2023-01-04T20:31:55.992Z,1.17
2023-01-04T20:34:24.348Z,1.67
2023-01-04T20:36:52.232Z,1.87
2023-01-04T20:39:22.414Z,1.70
2023-01-04T20:42:07.688Z,0.50
2023-01-04T20:44:36.577Z,0.80
2023-01-04T20:47:04.595Z,0.80
2023-01-04T20:49:33.131Z,1.10
2023-01-04T20:52:01.532Z,0.40
2023-01-04T20:54:31.447Z,1.53
2023-01-04T20:56:59.288Z,0.70
2023-01-04T20:59:27.895Z,0.40
2023-01-04T21:01:56.338Z,0.80
2023-01-04T21:04:24.446Z,0.90
2023-01-04T21:06:52.787Z,0.80
2023-01-04T21:09:20.566Z,1.23
2023-01-04T21:11:50.317Z,1.13
2023-01-04T21:14:18.991Z,0.70
2023-01-04T21:16:46.968Z,1.00
2023-01-04T21:19:14.909Z,1.60
2023-01-04T21:21:42.823Z,0.90
2023-01-04T21:24:10.530Z,0.50
2023-01-04T21:26:39.214Z,1.80
2023-01-04T21:29:08.425Z,0.87
2023-01-04T21:31:36.249Z,1.10
2023-01-04T21:34:09.318Z,1.07
2023-01-04T21:36:41.006Z,1.70
2023-01-04T21:39:08.757Z,0.60
2023-01-04T21:41:38.820Z,1.40
2023-01-04T21:44:10.117Z,0.60
2023-01-04T21:46:38.044Z,0.90
2023-01-04T21:49:06.388Z,0.57
2023-01-04T21:51:35.568Z,0.53
2023-01-04T21:54:03.351Z,0.80
2023-01-04T21:56:32.026Z,2.40
2023-01-04T21:58:59.865Z,0.50
2023-01-04T22:01:34.743Z,1.23
2023-01-04T22:04:04.195Z,0.60
2023-01-04T22:06:33.035Z,0.50
2023-01-04T22:09:01.120Z,0.60
2023-01-04T22:11:28.815Z,0.70
2023-01-04T22:13:57.046Z,0.77
2023-01-04T22:16:25.423Z,0.70
2023-01-04T22:18:54.851Z,1.33
2023-01-04T22:21:24.218Z,1.00
2023-01-04T22:23:52.056Z,0.70
2023-01-04T22:26:19.709Z,0.70
2023-01-04T22:28:47.759Z,1.53
2023-01-04T22:31:16.353Z,0.70
2023-01-04T22:33:44.665Z,0.83
2023-01-04T22:36:22.462Z,0.50
2023-01-04T22:38:51.801Z,0.90
2023-01-04T22:41:21.380Z,1.23
2023-01-04T22:43:56.452Z,0.80
2023-01-04T22:46:25.178Z,0.50
2023-01-04T22:48:53.186Z,0.40
2023-01-04T22:51:23.748Z,0.70
2023-01-04T22:53:54.612Z,1.47
2023-01-04T22:56:23.323Z,0.97
2023-01-04T22:58:54.900Z,0.67
2023-01-04T23:01:24.920Z,0.50
2023-01-04T23:03:54.715Z,0.60
2023-01-04T23:06:26.636Z,0.50
2023-01-04T23:08:59.373Z,0.60
2023-01-04T23:11:29.580Z,0.60
2023-01-04T23:13:57.731Z,0.50
2023-01-04T23:16:32.233Z,0.63
2023-01-04T23:19:00.674Z,0.60
2023-01-04T23:21:30.876Z,1.63
2023-01-04T23:24:00.239Z,0.70
2023-01-04T23:26:30.613Z,0.80
2023-01-04T23:28:59.072Z,0.50
2023-01-04T23:31:30.344Z,0.93
2023-01-04T23:34:01.669Z,0.70
2023-01-04T23:36:33.454Z,0.67
2023-01-04T23:39:02.877Z,1.07
2023-01-04T23:41:47.333Z,0.60
2023-01-04T23:46:53.025Z,0.60
2023-01-04T23:49:20.756Z,0.90
2023-01-04T23:51:50.965Z,0.50
2023-01-04T23:54:19.279Z,0.43
2023-01-04T23:56:47.010Z,0.43
2023-01-04T23:59:15.671Z,0.60
